Time;durP1;ratioP1;P1;durP2;ratioP2;P2;SDS_P1;SDS_P2;PMS_P1;PMS_P2;Temp;Humidity;BMP_temperature;BMP_pressure;BME280_temperature;BME280_humidity;BME280_pressure;Samples;Min_cycle;Max_cycle;Signal;HPM_P1;HPM_P2
2022/01/20 00:01:22;;;;;;;12.05;7.32;;;3.40;99.90;;;;;;5114313;28;20030;-67
2022/01/20 00:03:32;;;;;;;12.88;8.02;;;3.30;99.90;;;;;;5111550;28;20040;-67
2022/01/20 00:27:31;;;;;;;15.15;7.88;;;3.20;99.90;;;;;;5114366;28;20084;-66
2022/01/20 00:32:57;;;;;;;14.82;8.15;;;3.20;99.90;;;;;;5113981;28;20445;-66
2022/01/20 00:35:24;;;;;;;11.63;6.90;;;3.20;99.90;;;;;;5113570;28;20364;-66
2022/01/20 00:37:50;;;;;;;14.30;7.30;;;3.20;99.90;;;;;;5112104;28;20098;-66
2022/01/20 00:40:16;;;;;;;14.10;7.20;;;3.20;99.90;;;;;;5113448;28;20436;-66
2022/01/20 00:42:42;;;;;;;13.20;7.32;;;3.20;99.90;;;;;;5114301;28;20491;-66
2022/01/20 00:45:08;;;;;;;11.85;7.50;;;3.20;99.90;;;;;;5115515;28;20425;-66
2022/01/20 00:47:34;;;;;;;10.68;7.10;;;3.20;99.90;;;;;;5116324;28;20076;-67
2022/01/20 00:50:00;;;;;;;13.15;7.30;;;3.30;99.90;;;;;;5114508;28;20023;-66
2022/01/20 00:52:26;;;;;;;11.63;7.53;;;3.30;99.90;;;;;;5113754;28;20012;-66
2022/01/20 00:54:52;;;;;;;14.35;8.25;;;3.30;99.90;;;;;;5113527;28;20253;-66
2022/01/20 00:57:17;;;;;;;11.97;6.97;;;3.30;99.90;;;;;;5113181;28;20036;-66
2022/01/20 00:59:43;;;;;;;12.33;7.53;;;3.30;99.90;;;;;;5112979;28;20352;-66
2022/01/20 01:02:10;;;;;;;11.60;6.97;;;3.30;99.90;;;;;;5113232;28;20035;-67
2022/01/20 01:04:37;;;;;;;12.90;7.25;;;3.30;99.90;;;;;;5112918;28;20465;-68
2022/01/20 01:09:38;;;;;;;11.85;7.30;;;3.30;99.90;;;;;;5113696;28;20024;-66
2022/01/20 01:12:07;;;;;;;13.60;7.60;;;3.20;99.90;;;;;;5113050;28;20039;-67
2022/01/20 01:14:34;;;;;;;13.20;7.45;;;3.20;99.90;;;;;;5112072;28;20106;-67
2022/01/20 01:24:42;;;;;;;12.53;7.57;;;3.30;99.90;;;;;;5117097;28;20028;-67
2022/01/20 01:27:08;;;;;;;13.75;7.93;;;3.30;99.90;;;;;;5116969;28;20618;-67
2022/01/20 01:32:22;;;;;;;12.80;7.93;;;3.30;99.90;;;;;;5127095;28;20034;-67
2022/01/20 01:34:51;;;;;;;11.55;7.03;;;3.30;99.90;;;;;;5121930;27;20473;-67
2022/01/20 01:40:04;;;;;;;12.68;7.32;;;3.30;99.90;;;;;;5116820;28;20035;-66
2022/01/20 01:42:38;;;;;;;12.93;7.70;;;3.40;99.90;;;;;;5115914;28;20028;-66
2022/01/20 01:45:08;;;;;;;13.35;7.57;;;3.40;99.90;;;;;;5114762;28;20070;-66
2022/01/20 01:47:34;;;;;;;12.07;7.30;;;3.30;99.90;;;;;;5116481;28;20016;-66
2022/01/20 01:50:00;;;;;;;13.57;8.33;;;3.30;99.90;;;;;;5116367;28;20046;-66
2022/01/20 01:52:25;;;;;;;12.27;7.50;;;3.30;99.90;;;;;;5115003;28;20163;-66
2022/01/20 01:54:51;;;;;;;12.03;7.13;;;3.30;99.90;;;;;;5116028;28;20342;-66
2022/01/20 01:57:16;;;;;;;16.13;8.17;;;3.30;99.90;;;;;;5114771;28;20031;-66
2022/01/20 01:59:42;;;;;;;15.33;7.70;;;3.30;99.90;;;;;;5116152;28;20024;-67
2022/01/20 02:02:08;;;;;;;12.27;7.93;;;3.40;99.90;;;;;;5116020;28;20385;-66
2022/01/20 02:04:34;;;;;;;12.47;7.40;;;3.30;99.90;;;;;;5115790;28;20024;-66
2022/01/20 02:07:28;;;;;;;12.13;7.60;;;3.30;99.90;;;;;;5116190;28;20483;-67
2022/01/20 02:18:24;;;;;;;10.32;6.63;;;3.40;99.90;;;;;;5115801;28;20047;-67
2022/01/20 02:20:44;;;;;;;11.35;6.95;;;3.50;99.90;;;;;;5115752;28;20492;-67
2022/01/20 02:23:10;;;;;;;11.57;6.47;;;3.40;99.90;;;;;;5115749;28;20043;-67
2022/01/20 02:25:37;;;;;;;10.90;5.87;;;3.40;99.90;;;;;;5115730;28;20057;-66
2022/01/20 02:28:05;;;;;;;11.23;6.80;;;3.40;99.90;;;;;;5114323;28;20024;-67
2022/01/20 02:30:32;;;;;;;11.52;6.78;;;3.40;99.90;;;;;;5115278;28;20462;-66
2022/01/20 02:32:58;;;;;;;11.98;6.78;;;3.40;99.90;;;;;;5114530;28;20396;-66
2022/01/20 02:35:26;;;;;;;9.93;6.70;;;3.40;99.90;;;;;;5115349;28;20030;-67
2022/01/20 02:37:59;;;;;;;10.70;6.60;;;3.40;99.90;;;;;;5114094;28;20023;-67
2022/01/20 02:44:49;;;;;;;9.90;6.30;;;3.40;99.90;;;;;;5118200;28;20023;-67
2022/01/20 02:46:05;;;;;;;11.45;6.75;;;3.50;99.90;;;;;;5118974;28;20515;-67
2022/01/20 02:48:31;;;;;;;10.20;6.22;;;3.40;99.90;;;;;;5118378;28;20034;-67
2022/01/20 02:50:57;;;;;;;9.37;5.57;;;3.40;99.90;;;;;;5118276;28;20027;-67
2022/01/20 02:53:23;;;;;;;;;;;3.40;99.90;;;;;;5117691;28;20470;-66
2022/01/20 02:55:49;;;;;;;10.00;6.45;;;3.40;99.90;;;;;;5116281;28;19991;-67
2022/01/20 02:58:14;;;;;;;11.10;6.57;;;3.40;99.90;;;;;;5116215;28;20430;-68
2022/01/20 03:00:40;;;;;;;11.50;6.63;;;3.40;99.90;;;;;;5116317;28;20023;-67
2022/01/20 03:03:06;;;;;;;11.25;6.45;;;3.40;99.90;;;;;;5115004;28;20022;-67
2022/01/20 03:05:33;;;;;;;8.63;5.63;;;3.40;99.90;;;;;;5113584;28;20088;-67
2022/01/20 03:08:00;;;;;;;;;;;3.40;99.90;;;;;;5116181;28;20018;-67
2022/01/20 03:10:26;;;;;;;9.35;6.03;;;3.50;99.90;;;;;;5115406;28;19903;-67
2022/01/20 03:12:52;;;;;;;9.80;6.30;;;3.50;99.90;;;;;;5115582;28;20478;-66
2022/01/20 03:15:18;;;;;;;9.10;5.57;;;3.40;99.90;;;;;;5114778;28;20054;-66
2022/01/20 03:17:43;;;;;;;9.63;5.63;;;3.40;99.90;;;;;;5115650;28;20855;-66
2022/01/20 03:20:09;;;;;;;8.97;6.30;;;3.40;99.90;;;;;;5115908;28;20114;-66
2022/01/20 03:22:35;;;;;;;12.43;6.43;;;3.40;99.90;;;;;;5116208;28;20753;-67
2022/01/20 03:25:01;;;;;;;12.73;6.93;;;3.50;99.90;;;;;;5114156;28;20028;-66
2022/01/20 03:27:26;;;;;;;9.27;5.73;;;3.40;99.90;;;;;;5113053;28;20023;-66
2022/01/20 03:29:52;;;;;;;9.33;5.83;;;3.40;99.90;;;;;;5112837;28;20277;-67
2022/01/20 03:32:18;;;;;;;9.80;6.30;;;3.30;99.90;;;;;;5112833;28;20023;-68
2022/01/20 03:34:43;;;;;;;10.33;6.23;;;3.40;99.90;;;;;;5113953;28;20111;-68
2022/01/20 03:37:09;;;;;;;11.23;6.50;;;3.40;99.90;;;;;;5114090;28;20111;-67
2022/01/20 03:39:35;;;;;;;9.77;6.20;;;3.30;99.90;;;;;;5113976;28;20023;-68
2022/01/20 03:42:00;;;;;;;11.43;5.80;;;3.40;99.90;;;;;;5113432;28;20115;-67
2022/01/20 03:44:26;;;;;;;9.80;6.13;;;3.40;99.90;;;;;;5113845;28;20051;-68
2022/01/20 03:46:52;;;;;;;10.47;6.03;;;3.40;99.90;;;;;;5113989;28;20437;-68
2022/01/20 03:52:02;;;;;;;9.32;6.18;;;3.40;99.90;;;;;;5113937;28;20020;-67
2022/01/20 03:54:27;;;;;;;10.07;6.38;;;3.40;99.90;;;;;;5113749;28;20063;-67
2022/01/20 03:56:53;;;;;;;11.13;7.07;;;3.40;99.90;;;;;;5112433;28;20066;-67
2022/01/20 03:59:19;;;;;;;10.20;6.13;;;3.40;99.90;;;;;;5113756;28;20043;-68
2022/01/20 04:01:45;;;;;;;9.87;6.07;;;3.40;99.90;;;;;;5112451;28;20464;-68
2022/01/20 04:04:11;;;;;;;10.95;6.53;;;3.40;99.90;;;;;;5113526;28;20020;-68
2022/01/20 04:06:37;;;;;;;11.85;6.82;;;3.30;99.90;;;;;;5113619;28;20469;-68
2022/01/20 04:09:03;;;;;;;11.68;7.07;;;3.40;99.90;;;;;;5115061;28;20099;-68
2022/01/20 04:11:30;;;;;;;12.32;7.38;;;3.40;99.90;;;;;;5124184;28;20024;-68
2022/01/20 04:13:56;;;;;;;;;;;3.40;99.90;;;;;;5120439;28;20355;-67
2022/01/20 04:16:36;;;;;;;13.18;7.07;;;3.40;99.90;;;;;;5115080;28;19903;-68
2022/01/20 04:19:07;;;;;;;10.23;6.60;;;3.40;99.90;;;;;;5113946;28;20391;-67
2022/01/20 04:21:34;;;;;;;11.82;6.93;;;3.40;99.90;;;;;;5112389;28;20134;-67
2022/01/20 04:24:02;;;;;;;11.57;7.03;;;3.40;99.90;;;;;;5113507;28;20030;-67
2022/01/20 04:26:29;;;;;;;11.63;7.40;;;3.40;99.90;;;;;;5113325;28;20023;-67
2022/01/20 04:28:56;;;;;;;12.43;7.53;;;3.40;99.90;;;;;;5112373;28;20027;-67
2022/01/20 04:31:24;;;;;;;13.52;7.95;;;3.40;99.90;;;;;;5113608;28;20023;-67
2022/01/20 04:33:50;;;;;;;14.23;7.95;;;3.40;99.90;;;;;;5114980;28;20470;-67
2022/01/20 04:36:16;;;;;;;10.65;7.05;;;3.40;99.90;;;;;;5114174;28;20020;-67
2022/01/20 04:38:42;;;;;;;10.48;7.22;;;3.40;99.90;;;;;;5113444;28;20032;-67
2022/01/20 04:41:09;;;;;;;12.57;7.80;;;3.40;99.90;;;;;;5113273;28;20023;-69
2022/01/20 04:43:34;;;;;;;12.30;7.78;;;3.40;99.90;;;;;;5113729;28;20310;-68
2022/01/20 04:46:26;;;;;;;14.90;8.47;;;3.40;99.90;;;;;;5119409;28;20344;-68
2022/01/20 04:57:17;;;;;;;16.30;8.65;;;3.50;99.90;;;;;;5118081;28;20078;-67
2022/01/20 04:59:44;;;;;;;15.73;7.85;;;3.40;99.90;;;;;;5117547;28;20016;-69
2022/01/20 05:02:11;;;;;;;14.10;8.63;;;3.50;99.90;;;;;;5115826;28;20033;-68
2022/01/20 05:04:37;;;;;;;19.55;9.30;;;3.40;99.90;;;;;;5117059;28;20080;-68
2022/01/20 05:07:04;;;;;;;15.00;9.13;;;3.40;99.90;;;;;;5115854;28;20035;-73
2022/01/20 05:09:30;;;;;;;15.20;9.05;;;3.40;99.90;;;;;;5115635;28;20034;-68
2022/01/20 05:12:12;;;;;;;16.10;8.87;;;3.40;99.90;;;;;;5116955;28;20023;-68
2022/01/20 05:14:37;;;;;;;13.93;8.15;;;3.40;99.90;;;;;;5117105;28;20027;-68
2022/01/20 05:17:03;;;;;;;14.03;8.93;;;3.40;99.90;;;;;;5117015;28;20024;-68
2022/01/20 05:19:30;;;;;;;17.48;9.48;;;3.40;99.90;;;;;;5116810;28;20062;-68
2022/01/20 05:21:57;;;;;;;15.95;9.10;;;3.50;99.90;;;;;;5116844;28;20035;-68
2022/01/20 05:24:23;;;;;;;15.35;9.15;;;3.40;99.90;;;;;;5116754;28;20024;-68
2022/01/20 05:26:50;;;;;;;15.50;8.88;;;3.40;99.90;;;;;;5116673;28;20499;-69
2022/01/20 05:29:19;;;;;;;17.38;9.75;;;3.40;99.90;;;;;;5115282;28;20019;-68
2022/01/20 05:31:45;;;;;;;17.05;9.88;;;3.40;99.90;;;;;;5116503;27;20098;-68
2022/01/20 05:34:11;;;;;;;17.77;9.93;;;3.50;99.90;;;;;;5116552;28;20052;-69
2022/01/20 05:36:36;;;;;;;20.20;10.03;;;3.50;99.90;;;;;;5116555;28;20024;-70
2022/01/20 05:39:03;;;;;;;15.13;9.00;;;3.50;99.90;;;;;;5116638;28;20621;-69
2022/01/20 05:41:29;;;;;;;15.20;9.00;;;3.50;99.90;;;;;;5117053;28;20033;-69
2022/01/20 05:43:56;;;;;;;16.27;9.30;;;3.50;99.90;;;;;;5116498;28;20408;-69
2022/01/20 05:46:25;;;;;;;15.50;8.63;;;3.50;99.90;;;;;;5114915;28;20499;-69
2022/01/20 05:48:50;;;;;;;15.15;8.55;;;3.50;99.90;;;;;;5116242;28;20021;-69
2022/01/20 05:51:18;;;;;;;15.57;9.23;;;3.50;99.90;;;;;;5116158;28;20095;-69
2022/01/20 05:53:44;;;;;;;17.63;9.95;;;3.50;99.90;;;;;;5116322;28;20364;-69
2022/01/20 05:56:09;;;;;;;16.23;9.00;;;3.50;99.90;;;;;;5114687;28;20068;-69
2022/01/20 05:58:36;;;;;;;16.60;9.27;;;3.50;99.90;;;;;;5114669;28;20027;-69
2022/01/20 06:01:06;;;;;;;15.85;9.88;;;3.60;99.90;;;;;;5114795;28;20027;-68
2022/01/20 06:03:36;;;;;;;16.00;8.90;;;3.60;99.90;;;;;;5114262;28;20479;-68
2022/01/20 06:06:03;;;;;;;17.40;9.27;;;3.60;99.90;;;;;;5115432;28;20058;-68
2022/01/20 06:08:28;;;;;;;18.15;10.20;;;3.60;99.90;;;;;;5116696;27;20364;-68
2022/01/20 06:10:54;;;;;;;17.93;9.60;;;3.70;99.90;;;;;;5114612;28;20026;-68
2022/01/20 06:13:19;;;;;;;16.60;9.03;;;3.60;99.90;;;;;;5115915;28;20077;-68
2022/01/20 06:15:46;;;;;;;18.27;10.03;;;3.60;99.90;;;;;;5117566;28;20016;-68
2022/01/20 06:18:11;;;;;;;16.58;9.55;;;3.60;99.90;;;;;;5115896;28;20019;-69
2022/01/20 06:20:38;;;;;;;17.00;10.00;;;3.60;99.90;;;;;;5114498;28;20073;-67
2022/01/20 06:23:08;;;;;;;18.05;10.10;;;3.60;99.90;;;;;;5115919;28;20020;-69
2022/01/20 06:25:34;;;;;;;16.65;10.00;;;3.60;99.90;;;;;;5115299;28;20031;-68
2022/01/20 06:28:00;;;;;;;20.83;11.15;;;3.60;99.90;;;;;;5113889;28;20476;-68
2022/01/20 06:30:25;;;;;;;16.73;10.37;;;3.70;99.90;;;;;;5115344;28;20024;-69
2022/01/20 06:32:54;;;;;;;25.57;12.73;;;3.60;99.90;;;;;;5115497;28;20380;-68
2022/01/20 06:35:21;;;;;;;19.80;10.57;;;3.70;99.90;;;;;;5115352;28;20079;-68
2022/01/20 06:37:47;;;;;;;22.52;12.15;;;3.60;99.90;;;;;;5115137;28;20024;-69
2022/01/20 06:40:13;;;;;;;18.05;10.90;;;3.60;99.90;;;;;;5115274;28;20070;-69
2022/01/20 06:42:40;;;;;;;21.10;12.52;;;3.60;99.90;;;;;;5115180;28;20024;-69
2022/01/20 06:45:06;;;;;;;;;;;3.60;99.90;;;;;;5115497;28;20040;-69
2022/01/20 06:47:32;;;;;;;22.92;13.55;;;3.60;99.90;;;;;;5115663;28;19914;-66
2022/01/20 06:49:58;;;;;;;19.98;11.50;;;3.60;99.90;;;;;;5115400;28;20031;-66
2022/01/20 06:52:24;;;;;;;18.90;10.98;;;3.60;99.90;;;;;;5115101;28;20027;-66
2022/01/20 06:54:49;;;;;;;21.90;11.27;;;3.60;99.90;;;;;;5115044;28;20046;-66
2022/01/20 06:57:15;;;;;;;22.02;11.50;;;3.50;99.90;;;;;;5115282;28;20031;-64
2022/01/20 06:59:41;;;;;;;21.37;11.30;;;3.60;99.90;;;;;;5115006;28;20111;-66
2022/01/20 07:02:06;;;;;;;25.17;12.10;;;3.60;99.90;;;;;;5114643;28;20020;-65
2022/01/20 07:04:32;;;;;;;19.77;11.27;;;3.50;99.90;;;;;;5114474;28;20027;-63
2022/01/20 07:06:59;;;;;;;23.35;11.60;;;3.60;99.90;;;;;;5113621;28;20026;-64
2022/01/20 07:09:25;;;;;;;21.10;11.45;;;3.70;99.90;;;;;;5115037;28;20396;-64
2022/01/20 07:11:50;;;;;;;20.58;11.52;;;3.70;99.90;;;;;;5114896;28;20023;-65
2022/01/20 07:14:17;;;;;;;20.10;11.15;;;3.70;99.90;;;;;;5115511;28;20035;-66
2022/01/20 07:16:42;;;;;;;21.73;12.00;;;3.70;99.90;;;;;;5115224;28;20023;-66
2022/01/20 07:19:08;;;;;;;23.87;11.77;;;3.70;99.90;;;;;;5115701;28;20372;-66
2022/01/20 07:21:34;;;;;;;20.08;12.02;;;3.70;99.90;;;;;;5114459;28;20340;-66
2022/01/20 07:23:59;;;;;;;19.20;11.33;;;3.70;99.90;;;;;;5114533;28;20442;-66
2022/01/20 07:26:25;;;;;;;18.50;10.53;;;3.70;99.90;;;;;;5113025;28;20022;-65
2022/01/20 07:28:51;;;;;;;19.13;11.30;;;3.70;99.90;;;;;;5114513;28;20384;-66
2022/01/20 07:31:20;;;;;;;18.43;10.80;;;3.80;99.90;;;;;;5114825;28;20026;-66
2022/01/20 07:33:46;;;;;;;20.63;11.50;;;3.80;99.90;;;;;;5114462;28;20114;-66
2022/01/20 07:36:12;;;;;;;15.82;9.95;;;3.80;99.90;;;;;;5114542;28;20055;-66
2022/01/20 07:38:38;;;;;;;19.00;10.67;;;3.80;99.90;;;;;;5114103;28;20035;-66
2022/01/20 07:41:03;;;;;;;20.92;10.45;;;3.90;99.90;;;;;;5113604;28;20020;-65
2022/01/20 07:43:29;;;;;;;23.03;11.50;;;3.90;99.90;;;;;;5113811;28;20377;-66
2022/01/20 07:45:55;;;;;;;18.33;9.77;;;3.80;99.90;;;;;;5113406;28;20488;-66
2022/01/20 07:48:21;;;;;;;20.90;10.68;;;3.80;99.90;;;;;;5113787;28;20019;-67
2022/01/20 07:50:46;;;;;;;16.87;10.47;;;3.80;99.90;;;;;;5113769;28;20072;-65
2022/01/20 07:53:12;;;;;;;20.30;10.00;;;3.80;99.90;;;;;;5113747;28;20067;-66
2022/01/20 07:55:39;;;;;;;18.80;11.47;;;3.80;99.90;;;;;;5113784;28;20429;-66
2022/01/20 07:58:05;;;;;;;21.05;10.50;;;3.80;99.90;;;;;;5113713;28;20424;-66
2022/01/20 08:00:31;;;;;;;19.90;10.77;;;3.90;99.90;;;;;;5115125;28;20102;-67
2022/01/20 08:02:56;;;;;;;17.60;10.40;;;3.80;99.90;;;;;;5114443;28;20133;-66
2022/01/20 08:05:22;;;;;;;17.47;9.77;;;3.80;99.90;;;;;;5112555;28;20036;-65
2022/01/20 08:07:48;;;;;;;20.13;10.77;;;3.80;99.90;;;;;;5113659;28;20022;-66
2022/01/20 08:10:14;;;;;;;18.90;10.63;;;3.80;99.90;;;;;;5113186;28;20019;-65
2022/01/20 08:12:40;;;;;;;20.17;10.60;;;3.80;99.90;;;;;;5113368;28;20068;-65
2022/01/20 08:15:12;;;;;;;21.88;12.23;;;3.80;99.90;;;;;;5113379;28;20035;-66
2022/01/20 08:17:38;;;;;;;23.83;10.80;;;3.80;99.90;;;;;;5112031;28;20069;-65
2022/01/20 08:20:05;;;;;;;18.17;10.55;;;3.80;99.90;;;;;;5113102;28;20020;-65
2022/01/20 08:22:34;;;;;;;18.77;10.18;;;3.90;99.90;;;;;;5112934;28;20031;-65
2022/01/20 08:25:10;;;;;;;22.65;10.80;;;3.90;99.90;;;;;;5112862;28;20051;-65
2022/01/20 08:27:39;;;;;;;23.33;10.38;;;4.00;99.90;;;;;;5111484;28;20365;-65
2022/01/20 08:30:07;;;;;;;18.65;10.30;;;4.00;99.90;;;;;;5112918;28;20028;-65
2022/01/20 08:32:33;;;;;;;22.05;10.40;;;4.00;99.90;;;;;;5113215;28;20061;-66
2022/01/20 08:35:03;;;;;;;22.67;11.03;;;4.00;99.90;;;;;;5116313;28;20030;-65
2022/01/20 08:37:29;;;;;;;19.80;10.18;;;4.00;99.90;;;;;;5116313;28;20567;-66
2022/01/20 08:39:55;;;;;;;21.55;10.23;;;3.90;99.90;;;;;;5114760;28;20038;-65
2022/01/20 08:42:22;;;;;;;22.53;10.30;;;4.00;99.90;;;;;;5114042;28;20031;-65
2022/01/20 08:44:48;;;;;;;17.88;9.70;;;4.00;99.90;;;;;;5113906;28;20051;-66
2022/01/20 08:47:17;;;;;;;20.60;10.20;;;4.00;99.90;;;;;;5113647;28;20024;-67
2022/01/20 08:49:44;;;;;;;19.55;9.93;;;4.00;99.90;;;;;;5113491;28;20362;-66
2022/01/20 08:52:10;;;;;;;16.70;9.55;;;4.10;99.90;;;;;;5112013;28;20038;-67
2022/01/20 08:54:35;;;;;;;18.20;10.20;;;4.20;99.90;;;;;;5113652;28;20032;-65
2022/01/20 08:57:01;;;;;;;16.67;10.33;;;4.20;99.90;;;;;;5114969;28;20028;-66
2022/01/20 08:59:27;;;;;;;20.30;9.97;;;4.30;99.90;;;;;;5114010;28;20023;-65
2022/01/20 09:01:53;;;;;;;16.60;10.07;;;4.40;99.90;;;;;;5113592;28;20039;-65
2022/01/20 09:04:18;;;;;;;22.30;8.77;;;4.50;99.90;;;;;;5113088;28;20149;-66
2022/01/20 09:06:44;;;;;;;21.33;9.57;;;4.50;99.90;;;;;;5112956;28;20491;-66
2022/01/20 09:09:10;;;;;;;15.77;8.37;;;4.50;99.90;;;;;;5111687;28;20114;-66
2022/01/20 09:11:38;;;;;;;17.63;8.97;;;4.50;99.90;;;;;;5112293;28;20030;-66
2022/01/20 09:16:49;;;;;;;21.00;9.27;;;4.50;99.90;;;;;;5113469;28;20483;-66
2022/01/20 09:19:15;;;;;;;18.05;8.57;;;4.50;99.90;;;;;;5113306;28;20023;-66
2022/01/20 09:21:42;;;;;;;15.20;9.05;;;4.50;99.90;;;;;;5111559;28;20411;-66
2022/01/20 09:24:07;;;;;;;;;;;4.60;99.90;;;;;;5112938;28;20046;-66
2022/01/20 09:26:33;;;;;;;20.38;9.82;;;4.50;99.90;;;;;;5111147;28;20363;-66
2022/01/20 09:28:59;;;;;;;23.27;9.63;;;4.60;99.90;;;;;;5112724;28;20057;-66
2022/01/20 09:31:27;;;;;;;19.63;8.70;;;4.50;99.90;;;;;;5112845;28;20489;-66
2022/01/20 09:33:54;;;;;;;20.65;9.02;;;4.60;99.90;;;;;;5112815;28;20090;-66
2022/01/20 09:36:20;;;;;;;;;;;4.60;99.90;;;;;;5113395;28;20028;-65
2022/01/20 09:38:46;;;;;;;14.88;8.48;;;4.80;99.90;;;;;;5112898;28;19903;-65
2022/01/20 09:41:11;;;;;;;21.53;8.67;;;4.90;99.90;;;;;;5115999;28;20027;-66
2022/01/20 09:43:37;;;;;;;16.07;8.73;;;4.90;99.90;;;;;;5115055;28;20634;-66
2022/01/20 09:46:03;;;;;;;17.97;8.83;;;4.90;99.90;;;;;;5116449;28;20043;-66
2022/01/20 09:48:32;;;;;;;17.77;8.55;;;4.90;99.90;;;;;;5116211;28;20019;-66
2022/01/20 09:51:01;;;;;;;19.92;9.45;;;5.00;99.90;;;;;;5115184;28;20032;-66
2022/01/20 09:53:28;;;;;;;22.38;8.13;;;5.10;99.90;;;;;;5115465;28;20020;-66
2022/01/20 09:55:54;;;;;;;18.55;8.13;;;5.10;99.90;;;;;;5115409;28;20023;-66
2022/01/20 09:58:21;;;;;;;20.60;8.13;;;5.10;99.90;;;;;;5116673;28;20035;-66
2022/01/20 10:00:47;;;;;;;15.90;8.70;;;5.10;99.90;;;;;;5114975;28;20127;-66
2022/01/20 10:03:19;;;;;;;13.73;7.75;;;5.10;99.90;;;;;;5116016;28;20028;-66
2022/01/20 10:05:48;;;;;;;18.77;8.30;;;5.00;99.90;;;;;;5118145;28;20035;-66
2022/01/20 10:08:17;;;;;;;16.27;8.35;;;5.10;99.90;;;;;;5119622;28;20387;-66
2022/01/20 10:10:45;;;;;;;19.38;8.52;;;5.10;99.90;;;;;;5116781;28;20027;-66
2022/01/20 10:13:12;;;;;;;20.27;8.15;;;5.10;99.90;;;;;;5114378;28;20031;-66
2022/01/20 10:15:38;;;;;;;20.90;8.27;;;5.10;99.90;;;;;;5116067;28;20015;-66
2022/01/20 10:18:12;;;;;;;19.13;8.05;;;5.20;99.90;;;;;;5115634;28;20102;-65
2022/01/20 10:21:03;;;;;;;19.45;8.55;;;5.20;99.90;;;;;;5115918;28;20023;-65
2022/01/20 10:23:42;;;;;;;18.25;7.10;;;5.30;99.90;;;;;;5116683;28;20031;-66
2022/01/20 10:26:22;;;;;;;17.20;7.55;;;5.50;99.90;;;;;;5117683;28;20039;-65
2022/01/20 10:28:56;;;;;;;21.63;8.27;;;5.80;99.90;;;;;;5114179;28;20039;-66
2022/01/20 10:31:45;;;;;;;17.08;8.18;;;6.10;99.90;;;;;;5115366;28;20059;-66
2022/01/20 10:34:31;;;;;;;15.45;6.55;;;6.10;99.90;;;;;;5114144;28;20019;-66
2022/01/20 10:37:04;;;;;;;15.20;7.13;;;6.00;99.90;;;;;;5115475;28;20547;-67
2022/01/20 10:39:39;;;;;;;16.58;7.10;;;5.90;99.90;;;;;;5115741;28;20369;-66
2022/01/20 10:42:13;;;;;;;18.98;7.20;;;5.90;99.90;;;;;;5115326;28;20024;-66
2022/01/20 10:44:50;;;;;;;16.80;7.80;;;5.80;99.90;;;;;;5113470;28;20029;-66
2022/01/20 10:47:25;;;;;;;20.60;8.50;;;5.80;99.90;;;;;;5115662;28;20016;-65
2022/01/20 10:49:51;;;;;;;15.43;7.50;;;5.70;99.90;;;;;;5114983;28;20141;-66
2022/01/20 10:52:22;;;;;;;17.88;8.07;;;5.70;99.90;;;;;;5113935;28;20024;-67
2022/01/20 10:54:52;;;;;;;20.05;8.40;;;5.60;99.90;;;;;;5113842;28;20028;-66
2022/01/20 10:57:27;;;;;;;19.80;8.65;;;5.60;99.90;;;;;;5116369;28;20019;-66
2022/01/20 10:59:55;;;;;;;22.98;8.23;;;5.60;99.90;;;;;;5115296;28;20035;-65
2022/01/20 11:02:25;;;;;;;17.95;7.32;;;5.60;99.90;;;;;;5115599;28;20019;-66
2022/01/20 11:04:51;;;;;;;16.95;7.90;;;5.60;99.90;;;;;;5116623;28;20019;-65
2022/01/20 11:07:17;;;;;;;20.53;8.13;;;5.50;99.90;;;;;;5115788;28;20106;-66
2022/01/20 11:09:45;;;;;;;21.48;8.45;;;5.60;99.90;;;;;;5115370;28;20253;-66
2022/01/20 11:12:13;;;;;;;19.00;8.55;;;5.60;99.90;;;;;;5114000;28;20131;-65
2022/01/20 11:14:40;;;;;;;17.30;8.85;;;5.60;99.90;;;;;;5114006;28;20054;-65
2022/01/20 11:17:06;;;;;;;22.40;8.00;;;5.60;99.90;;;;;;5115806;28;20024;-65
2022/01/20 11:19:37;;;;;;;21.17;8.68;;;5.50;99.90;;;;;;5114774;28;20046;-66
2022/01/20 11:22:08;;;;;;;24.08;8.75;;;5.50;99.90;;;;;;5115427;28;20027;-66
2022/01/20 11:24:35;;;;;;;15.93;8.38;;;5.40;99.90;;;;;;5113778;28;20437;-66
2022/01/20 11:27:02;;;;;;;20.17;8.63;;;5.30;99.90;;;;;;5113826;28;20022;-65
2022/01/20 11:29:50;;;;;;;26.25;9.85;;;5.30;99.90;;;;;;5115906;28;20028;-66
2022/01/20 11:32:23;;;;;;;25.02;9.50;;;5.40;99.90;;;;;;5113671;28;20073;-66
2022/01/20 11:35:05;;;;;;;17.30;7.90;;;5.60;99.90;;;;;;5115525;28;20023;-66
2022/01/20 11:37:38;;;;;;;17.98;8.40;;;5.70;99.90;;;;;;5115025;28;20049;-66
2022/01/20 11:40:20;;;;;;;23.15;8.07;;;5.90;99.90;;;;;;5116364;28;20472;-66
2022/01/20 11:43:09;;;;;;;14.20;7.22;;;6.00;99.90;;;;;;5116414;28;20065;-66
2022/01/20 11:45:42;;;;;;;19.73;8.45;;;6.20;99.90;;;;;;5115607;28;20020;-66
2022/01/20 11:48:19;;;;;;;23.27;7.70;;;6.50;99.90;;;;;;5115573;28;20019;-66
2022/01/20 11:50:47;;;;;;;19.08;6.82;;;6.70;99.90;;;;;;5115487;28;20020;-66
2022/01/20 11:53:18;;;;;;;23.13;7.38;;;6.80;99.90;;;;;;5115303;28;20456;-66
2022/01/20 11:55:50;;;;;;;12.48;4.25;;;6.80;99.90;;;;;;5114805;28;20028;-66
2022/01/20 11:58:20;;;;;;;7.55;2.05;;;6.30;99.90;;;;;;5114715;28;20106;-66
2022/01/20 12:01:04;;;;;;;3.40;1.20;;;5.90;99.90;;;;;;5114861;28;20019;-66
2022/01/20 12:03:30;;;;;;;2.92;1.10;;;5.40;99.90;;;;;;5114198;28;20024;-66
2022/01/20 12:06:01;;;;;;;;;;;5.10;99.90;;;;;;5113114;28;20505;-67
2022/01/20 12:08:27;;;;;;;5.10;1.45;;;4.70;99.90;;;;;;5114460;28;19998;-66
2022/01/20 12:11:04;;;;;;;5.70;1.87;;;4.50;99.90;;;;;;5114439;28;20059;-65
2022/01/20 12:13:31;;;;;;;7.15;2.30;;;4.30;99.90;;;;;;5114215;28;20047;-66
2022/01/20 12:16:00;;;;;;;5.07;1.83;;;4.20;99.90;;;;;;5113647;28;20023;-66
2022/01/20 12:18:27;;;;;;;4.50;1.80;;;4.00;99.90;;;;;;5112434;28;20434;-66
2022/01/20 12:20:53;;;;;;;9.50;1.70;;;4.00;99.90;;;;;;5113512;28;20484;-66
2022/01/20 12:23:20;;;;;;;6.07;1.88;;;4.00;99.90;;;;;;5113770;28;20038;-65
2022/01/20 12:25:45;;;;;;;;;;;4.00;99.90;;;;;;5112974;28;20028;-65
2022/01/20 12:28:16;;;;;;;5.72;2.47;;;4.00;99.90;;;;;;5113910;28;19911;-66
2022/01/20 12:30:47;;;;;;;9.00;2.30;;;4.00;99.90;;;;;;5112272;28;20019;-66
2022/01/20 12:33:15;;;;;;;7.72;2.70;;;4.10;99.90;;;;;;5116031;28;20016;-65
2022/01/20 12:35:49;;;;;;;6.93;2.30;;;4.20;99.90;;;;;;5113410;28;20038;-66
2022/01/20 12:38:29;;;;;;;8.85;2.95;;;4.20;99.90;;;;;;5114305;28;20030;-66
2022/01/20 12:41:00;;;;;;;9.55;2.63;;;4.20;99.90;;;;;;5114013;28;20024;-67
2022/01/20 12:43:46;;;;;;;7.47;3.10;;;4.20;99.90;;;;;;5113459;28;20080;-69
2022/01/20 12:46:18;;;;;;;6.85;2.10;;;4.20;99.90;;;;;;5112606;28;20042;-69
2022/01/20 12:48:55;;;;;;;6.60;2.85;;;4.10;99.90;;;;;;5113401;28;20034;-68
2022/01/20 12:51:29;;;;;;;;;;;4.00;99.90;;;;;;5112269;28;20548;-68
2022/01/20 12:54:04;;;;;;;7.18;2.80;;;4.00;99.90;;;;;;5113527;28;19922;-68
2022/01/20 12:56:35;;;;;;;6.68;2.95;;;4.10;99.90;;;;;;5111857;28;20488;-67
2022/01/20 12:59:00;;;;;;;6.82;2.28;;;4.10;99.90;;;;;;5113320;28;20484;-67
2022/01/20 13:01:42;;;;;;;5.80;2.10;;;4.10;99.90;;;;;;5113000;28;20046;-67
2022/01/20 13:04:09;;;;;;;7.30;2.17;;;4.20;99.90;;;;;;5113010;28;20392;-69
2022/01/20 13:06:39;;;;;;;8.27;2.90;;;4.20;99.90;;;;;;5111692;28;20055;-68
2022/01/20 13:09:07;;;;;;;6.47;2.03;;;4.20;99.90;;;;;;5111825;28;20047;-69
2022/01/20 13:11:39;;;;;;;6.38;2.08;;;4.20;99.90;;;;;;5113488;28;20065;-69
2022/01/20 13:14:05;;;;;;;6.15;1.88;;;4.30;99.90;;;;;;5115523;28;20393;-69
2022/01/20 13:16:32;;;;;;;6.13;1.75;;;4.20;99.90;;;;;;5116900;28;20034;-69
2022/01/20 13:19:03;;;;;;;7.47;2.20;;;4.20;99.90;;;;;;5115628;28;20085;-68
2022/01/20 13:21:41;;;;;;;8.07;2.28;;;4.30;99.90;;;;;;5117029;28;20026;-68
2022/01/20 13:24:10;;;;;;;5.82;2.17;;;4.40;99.90;;;;;;5117743;28;20107;-68
2022/01/20 13:26:53;;;;;;;6.65;1.88;;;4.40;99.90;;;;;;5118036;28;20026;-69
2022/01/20 13:29:21;;;;;;;8.70;2.13;;;4.50;99.90;;;;;;5120059;28;20533;-69
2022/01/20 13:31:50;;;;;;;6.28;1.80;;;4.60;99.90;;;;;;5116998;28;20030;-69
2022/01/20 13:34:19;;;;;;;11.30;2.25;;;4.60;99.90;;;;;;5115177;28;20396;-68
2022/01/20 13:36:53;;;;;;;6.03;1.95;;;4.60;99.90;;;;;;5115273;28;20501;-66
2022/01/20 13:39:33;;;;;;;7.22;1.90;;;4.60;99.90;;;;;;5116762;27;20028;-69
2022/01/20 13:42:38;;;;;;;8.73;2.97;;;4.60;99.90;;;;;;5115369;28;20024;-67
2022/01/20 13:45:16;;;;;;;10.10;2.22;;;4.60;99.90;;;;;;5116151;28;20035;-69
2022/01/20 13:47:57;;;;;;;10.07;2.00;;;4.70;99.90;;;;;;5116390;28;20076;-71
2022/01/20 13:50:40;;;;;;;9.43;2.30;;;4.70;99.90;;;;;;5116189;28;20020;-69
2022/01/20 13:53:20;;;;;;;7.80;2.55;;;4.70;99.90;;;;;;5114851;28;20065;-67
2022/01/20 13:55:50;;;;;;;5.78;2.03;;;4.80;99.90;;;;;;5116427;28;20107;-71
2022/01/20 13:58:45;;;;;;;9.25;3.00;;;4.80;99.90;;;;;;5116495;28;20034;-67
2022/01/20 14:01:12;;;;;;;7.47;2.53;;;4.90;99.90;;;;;;5103012;28;20036;-67
2022/01/20 14:03:40;;;;;;;7.28;2.10;;;4.90;99.90;;;;;;5116402;28;20530;-68